createdAt,value
2023-01-07T00:01:28.085Z,3.64
2023-01-07T00:03:57.410Z,3.56
2023-01-07T00:06:27.629Z,3.53
2023-01-07T00:08:57.087Z,3.35
2023-01-07T00:11:26.762Z,3.19
2023-01-07T00:13:56.163Z,3.51
2023-01-07T00:16:26.655Z,3.17
2023-01-07T00:18:55.847Z,3.05
2023-01-07T00:21:25.111Z,3.22
2023-01-07T00:23:55.282Z,2.89
2023-01-07T00:26:24.921Z,3.23
2023-01-07T00:28:54.159Z,3.37
2023-01-07T00:31:24.226Z,3.40
2023-01-07T00:34:07.016Z,3.40
2023-01-07T00:36:37.909Z,2.60
2023-01-07T00:39:08.071Z,2.94
2023-01-07T00:41:36.564Z,3.02
2023-01-07T00:44:05.013Z,3.14
2023-01-07T00:46:33.010Z,2.79
2023-01-07T00:49:02.703Z,3.05
2023-01-07T00:51:30.678Z,2.81
2023-01-07T00:53:58.531Z,3.24
2023-01-07T00:56:26.393Z,2.95
2023-01-07T00:58:54.248Z,2.93
2023-01-07T01:01:22.258Z,2.87
2023-01-07T01:03:50.157Z,2.89
2023-01-07T01:06:19.397Z,2.77
2023-01-07T01:08:48.212Z,2.89
2023-01-07T01:11:17.752Z,2.98
2023-01-07T01:13:46.860Z,2.80
2023-01-07T01:16:17.274Z,2.25
2023-01-07T01:18:46.138Z,3.01
2023-01-07T01:21:16.143Z,2.88
2023-01-07T01:23:45.509Z,3.10
2023-01-07T01:26:15.555Z,2.79
2023-01-07T01:28:43.821Z,3.06
2023-01-07T01:31:12.101Z,3.43
2023-01-07T01:33:40.108Z,3.52
2023-01-07T01:36:10.402Z,2.95
2023-01-07T01:38:38.279Z,3.16
2023-01-07T01:41:08.551Z,3.08
2023-01-07T01:43:38.193Z,3.03
2023-01-07T01:46:12.692Z,2.91
2023-01-07T01:48:46.308Z,2.59
2023-01-07T01:51:16.834Z,2.54
2023-01-07T01:53:44.812Z,2.70
2023-01-07T01:56:17.533Z,2.83
2023-01-07T01:58:52.247Z,2.87
2023-01-07T02:01:20.261Z,3.07
2023-01-07T02:03:49.870Z,3.30
2023-01-07T02:06:22.804Z,3.19
2023-01-07T02:08:51.286Z,3.29
2023-01-07T02:11:31.441Z,3.35
2023-01-07T02:14:18.373Z,3.51
2023-01-07T02:16:54.461Z,3.10
2023-01-07T02:19:50.383Z,3.38
2023-01-07T02:22:30.624Z,2.93
2023-01-07T02:25:20.798Z,3.25
2023-01-07T02:28:12.097Z,3.60
2023-01-07T02:31:05.740Z,3.47
2023-01-07T02:33:44.098Z,3.68
2023-01-07T02:36:36.427Z,3.71
2023-01-07T02:39:19.993Z,3.63
2023-01-07T02:41:56.329Z,3.66
2023-01-07T02:44:30.804Z,3.40
2023-01-07T02:47:07.031Z,3.08
2023-01-07T02:49:36.824Z,3.17
2023-01-07T02:52:22.867Z,3.56
2023-01-07T02:54:56.077Z,3.58
2023-01-07T02:58:05.414Z,3.18
2023-01-07T03:01:01.331Z,2.65
2023-01-07T03:03:48.459Z,2.37
2023-01-07T03:06:34.773Z,2.75
2023-01-07T03:09:08.778Z,2.75
2023-01-07T03:11:43.331Z,2.58
2023-01-07T03:14:18.453Z,1.92
2023-01-07T03:16:52.441Z,2.33
2023-01-07T03:19:25.783Z,2.21
2023-01-07T03:21:57.463Z,2.62
2023-01-07T03:24:27.378Z,2.55
2023-01-07T03:26:59.297Z,2.70
2023-01-07T03:29:27.243Z,2.15
2023-01-07T03:31:59.638Z,2.30
2023-01-07T03:34:29.886Z,2.14
2023-01-07T03:37:03.592Z,1.34
2023-01-07T03:39:34.201Z,1.69
2023-01-07T03:42:19.264Z,1.60
2023-01-07T03:44:47.192Z,1.73
2023-01-07T03:47:15.171Z,1.80
2023-01-07T03:49:43.080Z,1.63
2023-01-07T03:52:12.260Z,1.49
2023-01-07T03:54:40.197Z,1.30
2023-01-07T03:57:08.105Z,1.14
2023-01-07T03:59:35.992Z,1.32
2023-01-07T04:02:03.933Z,1.05
2023-01-07T04:04:32.762Z,1.24
2023-01-07T04:07:00.700Z,1.29
2023-01-07T04:09:29.910Z,1.33
2023-01-07T04:11:57.797Z,1.38
2023-01-07T04:14:25.692Z,1.30
2023-01-07T04:16:53.682Z,1.09
2023-01-07T04:19:21.564Z,0.99
2023-01-07T04:21:49.445Z,0.85
2023-01-07T04:24:17.303Z,0.85
2023-01-07T04:26:46.557Z,0.95
2023-01-07T04:29:15.020Z,1.02
2023-01-07T04:31:42.897Z,1.21
2023-01-07T04:34:10.838Z,1.10
2023-01-07T04:36:38.711Z,1.32
2023-01-07T04:39:06.558Z,1.61
2023-01-07T04:41:34.433Z,1.72
2023-01-07T04:44:03.696Z,1.65
2023-01-07T04:46:31.651Z,1.70
2023-01-07T04:48:59.593Z,1.49
2023-01-07T04:51:27.430Z,1.63
2023-01-07T04:53:57.466Z,1.72
2023-01-07T04:56:25.670Z,2.22
2023-01-07T04:58:53.620Z,2.29
2023-01-07T05:01:22.966Z,1.96
2023-01-07T05:03:50.888Z,1.56
2023-01-07T05:06:18.962Z,1.67
2023-01-07T05:08:46.824Z,1.79
2023-01-07T05:11:15.560Z,1.85
2023-01-07T05:13:43.390Z,1.81
2023-01-07T05:16:11.271Z,1.71
2023-01-07T05:18:40.469Z,1.60
2023-01-07T05:21:10.463Z,1.65
2023-01-07T05:23:38.465Z,1.14
2023-01-07T05:26:06.490Z,1.32
2023-01-07T05:28:34.333Z,1.68
2023-01-07T05:31:02.441Z,1.68
2023-01-07T05:33:30.353Z,1.74
2023-01-07T05:35:59.567Z,1.65
2023-01-07T05:38:27.418Z,1.90
2023-01-07T05:40:55.475Z,2.01
2023-01-07T05:43:23.320Z,1.95
2023-01-07T05:45:51.265Z,1.77
2023-01-07T05:48:19.176Z,1.96
2023-01-07T05:50:47.039Z,1.75
2023-01-07T05:53:17.678Z,2.03
2023-01-07T05:55:45.647Z,1.20
2023-01-07T05:58:13.525Z,1.44
2023-01-07T06:00:41.413Z,1.42
2023-01-07T06:03:09.520Z,1.22
2023-01-07T06:05:37.538Z,1.42
2023-01-07T06:08:05.847Z,1.56
2023-01-07T06:10:35.513Z,1.47
2023-01-07T06:13:03.476Z,1.51
2023-01-07T06:15:31.424Z,1.76
2023-01-07T06:17:59.388Z,2.02
2023-01-07T06:20:27.262Z,2.51
2023-01-07T06:22:55.396Z,2.29
2023-01-07T06:25:23.294Z,2.46
2023-01-07T06:27:52.517Z,1.68
2023-01-07T06:30:20.563Z,2.84
2023-01-07T06:32:48.462Z,3.41
2023-01-07T06:35:16.298Z,3.47
2023-01-07T06:37:44.194Z,3.68
2023-01-07T06:40:12.939Z,4.18
2023-01-07T06:42:40.969Z,4.53
2023-01-07T06:45:11.521Z,4.58
2023-01-07T06:47:39.366Z,4.63
2023-01-07T06:50:10.924Z,4.85
2023-01-07T06:52:38.862Z,4.70
2023-01-07T06:55:07.175Z,4.70
2023-01-07T06:57:35.103Z,4.76
2023-01-07T07:00:03.198Z,5.02
2023-01-07T07:02:32.591Z,5.35
2023-01-07T07:05:00.539Z,4.77
2023-01-07T07:07:28.481Z,5.20
2023-01-07T07:09:56.318Z,5.32
2023-01-07T07:12:24.181Z,5.75
2023-01-07T07:14:52.180Z,5.77
2023-01-07T07:17:20.027Z,5.74
2023-01-07T07:19:49.294Z,5.83
2023-01-07T07:22:17.222Z,6.28
2023-01-07T07:24:45.153Z,6.33
2023-01-07T07:27:13.030Z,6.88
2023-01-07T07:29:40.911Z,7.30
2023-01-07T07:32:08.968Z,7.08
2023-01-07T07:34:36.975Z,7.03
2023-01-07T07:37:06.426Z,6.85
2023-01-07T07:39:34.543Z,7.09
2023-01-07T07:42:04.164Z,7.00
2023-01-07T07:44:32.089Z,6.97
2023-01-07T07:46:59.970Z,6.41
2023-01-07T07:49:27.922Z,6.97
2023-01-07T07:51:55.847Z,7.31
2023-01-07T07:54:25.238Z,7.29
2023-01-07T07:56:53.143Z,7.31
2023-01-07T07:59:21.080Z,7.30
2023-01-07T08:01:49.557Z,7.76
2023-01-07T08:04:17.588Z,7.45
2023-01-07T08:06:45.492Z,7.09
2023-01-07T08:09:13.400Z,7.30
2023-01-07T08:11:42.887Z,7.40
2023-01-07T08:14:11.295Z,7.47
2023-01-07T08:16:41.783Z,7.64
2023-01-07T08:19:09.716Z,7.19
2023-01-07T08:21:37.619Z,8.02
2023-01-07T08:24:06.253Z,8.54
2023-01-07T08:26:34.833Z,8.59
2023-01-07T08:29:04.342Z,8.68
2023-01-07T08:31:32.490Z,8.46
2023-01-07T08:34:00.407Z,8.23
2023-01-07T08:36:28.350Z,8.48
2023-01-07T08:38:56.684Z,8.62
2023-01-07T08:41:26.035Z,8.33
2023-01-07T08:43:54.950Z,8.46
2023-01-07T08:46:24.226Z,8.52
2023-01-07T08:48:52.199Z,8.51
2023-01-07T08:51:20.170Z,8.26
2023-01-07T08:53:49.033Z,8.58
2023-01-07T08:56:16.925Z,8.54
2023-01-07T08:58:44.816Z,8.93
2023-01-07T09:01:12.915Z,9.39
2023-01-07T09:03:42.429Z,9.76
2023-01-07T09:06:10.620Z,9.60
2023-01-07T09:08:38.577Z,9.97
2023-01-07T09:11:06.752Z,9.67
2023-01-07T09:13:34.607Z,9.31
2023-01-07T09:16:02.579Z,9.13
2023-01-07T09:18:31.784Z,9.35
2023-01-07T09:21:01.328Z,9.48
2023-01-07T09:23:29.771Z,9.76
2023-01-07T09:25:57.644Z,9.87
2023-01-07T09:28:25.498Z,9.53
2023-01-07T09:30:54.840Z,9.87
2023-01-07T09:33:24.654Z,9.81
2023-01-07T09:35:52.939Z,10.57
2023-01-07T09:38:22.354Z,11.00
2023-01-07T09:40:50.840Z,10.64
2023-01-07T09:43:23.716Z,10.82
2023-01-07T09:45:54.997Z,11.45
2023-01-07T09:48:28.372Z,11.39
2023-01-07T09:51:00.832Z,11.58
2023-01-07T09:53:34.198Z,11.21
2023-01-07T09:56:12.183Z,11.19
2023-01-07T09:58:43.011Z,11.25
2023-01-07T10:01:22.401Z,11.40
2023-01-07T10:04:02.153Z,11.38
2023-01-07T10:06:43.392Z,11.91
2023-01-07T10:09:23.834Z,12.09
2023-01-07T10:12:00.471Z,12.27
2023-01-07T10:14:49.065Z,12.23
2023-01-07T10:17:32.289Z,11.95
2023-01-07T10:20:05.582Z,12.30
2023-01-07T10:22:37.183Z,12.63
2023-01-07T10:25:16.499Z,12.55
2023-01-07T10:27:46.663Z,12.57
2023-01-07T10:30:19.339Z,12.32
2023-01-07T10:32:49.604Z,12.57
2023-01-07T10:35:21.444Z,12.73
2023-01-07T10:37:49.407Z,13.02
2023-01-07T10:40:28.406Z,12.93
2023-01-07T10:43:02.251Z,13.01
2023-01-07T10:45:45.051Z,13.20
2023-01-07T10:48:31.221Z,13.21
2023-01-07T10:51:07.828Z,13.68
2023-01-07T10:53:50.321Z,13.79
2023-01-07T10:56:27.491Z,13.85
2023-01-07T10:58:55.502Z,14.02
2023-01-07T11:01:28.061Z,14.26
2023-01-07T11:03:59.575Z,14.24
2023-01-07T11:06:42.623Z,14.04
2023-01-07T11:09:15.084Z,14.39
2023-01-07T11:11:47.016Z,13.76
2023-01-07T11:14:20.533Z,14.07
2023-01-07T11:16:53.764Z,14.55
2023-01-07T11:19:23.754Z,14.49
2023-01-07T11:21:52.310Z,14.21
2023-01-07T11:24:32.115Z,14.31
2023-01-07T11:27:15.625Z,14.65
2023-01-07T11:29:45.517Z,14.79
2023-01-07T11:32:23.512Z,14.83
2023-01-07T11:34:59.657Z,14.54
2023-01-07T11:37:36.362Z,14.02
2023-01-07T11:40:18.864Z,13.16
2023-01-07T11:42:53.536Z,14.08
2023-01-07T11:45:23.626Z,14.13
2023-01-07T11:48:07.590Z,14.45
2023-01-07T11:50:38.666Z,13.68
2023-01-07T11:53:23.460Z,14.35
2023-01-07T11:56:00.563Z,14.49
2023-01-07T11:58:32.128Z,14.34
2023-01-07T12:01:15.625Z,14.03
2023-01-07T12:03:45.801Z,14.27
2023-01-07T12:06:24.953Z,13.69
2023-01-07T12:08:56.830Z,13.98
2023-01-07T12:11:32.522Z,13.86
2023-01-07T12:14:08.647Z,13.91
2023-01-07T12:16:37.326Z,14.22
2023-01-07T12:19:20.777Z,14.35
2023-01-07T12:22:03.058Z,14.14
2023-01-07T12:24:46.520Z,14.32
2023-01-07T12:27:27.206Z,14.41
2023-01-07T12:30:12.027Z,14.43
2023-01-07T12:32:51.444Z,14.55
2023-01-07T12:35:23.455Z,14.45
2023-01-07T12:37:58.611Z,14.39
2023-01-07T12:40:34.055Z,14.51
2023-01-07T12:43:12.893Z,14.44
2023-01-07T12:45:49.110Z,14.56
2023-01-07T12:48:25.066Z,14.45
2023-01-07T12:50:55.803Z,14.49
2023-01-07T12:53:31.374Z,14.66
2023-01-07T12:56:03.913Z,14.52
2023-01-07T12:58:43.561Z,14.47
2023-01-07T13:01:22.338Z,14.64
2023-01-07T13:03:58.219Z,14.61
2023-01-07T13:06:42.581Z,14.68
2023-01-07T13:09:19.468Z,14.56
2023-01-07T13:12:40.652Z,13.71
2023-01-07T13:15:11.275Z,14.05
2023-01-07T13:17:40.898Z,14.42
2023-01-07T13:20:13.573Z,14.65
2023-01-07T13:22:46.937Z,14.48
2023-01-07T13:25:27.269Z,14.92
2023-01-07T13:28:15.460Z,14.99
2023-01-07T13:30:57.682Z,15.14
2023-01-07T13:33:33.809Z,14.83
2023-01-07T13:36:20.589Z,14.87
2023-01-07T13:39:23.461Z,14.89
2023-01-07T13:42:15.540Z,14.74
2023-01-07T13:45:02.934Z,14.91
2023-01-07T13:47:42.154Z,14.59
2023-01-07T13:50:21.653Z,14.21
2023-01-07T13:52:59.139Z,14.74
2023-01-07T13:55:36.653Z,14.86
2023-01-07T13:58:33.152Z,14.41
2023-01-07T14:01:07.339Z,14.07
2023-01-07T14:03:51.355Z,14.03
2023-01-07T14:06:46.193Z,13.95
2023-01-07T14:09:38.468Z,13.98
2023-01-07T14:12:52.534Z,13.84
2023-01-07T14:15:28.540Z,13.64
2023-01-07T14:18:28.454Z,13.61
2023-01-07T14:21:08.053Z,13.06
2023-01-07T14:23:45.543Z,13.42
2023-01-07T14:26:23.709Z,13.26
2023-01-07T14:29:10.306Z,13.26
2023-01-07T14:31:38.560Z,13.13
2023-01-07T14:34:17.011Z,12.99
2023-01-07T14:37:14.962Z,12.58
2023-01-07T14:39:45.926Z,12.60
2023-01-07T14:42:45.874Z,12.59
2023-01-07T14:45:50.980Z,12.50
2023-01-07T14:48:30.501Z,12.45
2023-01-07T14:51:13.649Z,12.23
2023-01-07T14:54:02.582Z,10.48
2023-01-07T14:56:45.819Z,12.09
2023-01-07T14:59:55.628Z,12.02
2023-01-07T15:02:51.445Z,11.79
2023-01-07T15:05:55.401Z,11.73
2023-01-07T15:08:59.112Z,11.56
2023-01-07T15:11:45.556Z,11.30
2023-01-07T15:14:45.729Z,10.85
2023-01-07T15:17:20.743Z,10.80
2023-01-07T15:19:51.356Z,10.53
2023-01-07T15:22:51.516Z,10.45
2023-01-07T15:25:29.510Z,10.34
2023-01-07T15:28:07.129Z,10.28
2023-01-07T15:30:49.153Z,10.11
2023-01-07T15:33:36.726Z,10.00
2023-01-07T15:36:07.223Z,9.98
2023-01-07T15:38:41.494Z,9.98
2023-01-07T15:41:26.288Z,9.94
2023-01-07T15:43:54.831Z,9.84
2023-01-07T15:46:26.395Z,9.78
2023-01-07T15:49:23.008Z,9.66
2023-01-07T15:51:53.467Z,9.66
2023-01-07T15:54:28.165Z,9.63
2023-01-07T15:57:00.254Z,9.45
2023-01-07T15:59:31.841Z,9.26
2023-01-07T16:02:15.044Z,9.08
2023-01-07T16:04:44.365Z,9.01
2023-01-07T16:07:22.573Z,8.69
2023-01-07T16:09:51.485Z,8.80
2023-01-07T16:12:29.453Z,8.92
2023-01-07T16:14:57.535Z,8.90
2023-01-07T16:17:27.386Z,8.85
2023-01-07T16:20:11.050Z,8.72
2023-01-07T16:22:41.421Z,8.60
2023-01-07T16:25:17.351Z,8.40
2023-01-07T16:27:48.012Z,7.63
2023-01-07T16:30:20.335Z,8.26
2023-01-07T16:32:51.009Z,7.85
2023-01-07T16:35:24.908Z,7.91
2023-01-07T16:37:56.277Z,8.00
2023-01-07T16:40:32.493Z,8.05
2023-01-07T16:43:13.288Z,8.09
2023-01-07T16:45:48.168Z,8.16
2023-01-07T16:48:21.507Z,8.12
2023-01-07T16:50:53.834Z,7.92
2023-01-07T16:53:33.562Z,7.70
2023-01-07T16:56:21.926Z,7.48
2023-01-07T16:58:53.167Z,7.63
2023-01-07T17:01:30.083Z,7.55
2023-01-07T17:04:02.167Z,6.84
2023-01-07T17:06:38.272Z,7.52
2023-01-07T17:09:08.046Z,7.29
2023-01-07T17:11:39.365Z,6.96
2023-01-07T17:14:45.787Z,6.94
2023-01-07T17:17:45.020Z,6.59
2023-01-07T17:20:22.561Z,6.42
2023-01-07T17:22:51.316Z,6.29
2023-01-07T17:25:25.911Z,6.01
2023-01-07T17:27:59.185Z,6.09
2023-01-07T17:30:34.572Z,5.84
2023-01-07T17:33:06.059Z,5.78
2023-01-07T17:35:45.586Z,5.77
2023-01-07T17:38:17.083Z,5.80
2023-01-07T17:40:46.564Z,5.82
2023-01-07T17:43:36.625Z,5.67
2023-01-07T17:46:15.386Z,5.61
2023-01-07T17:48:43.557Z,5.54
2023-01-07T17:51:16.434Z,5.51
2023-01-07T17:53:50.610Z,5.59
2023-01-07T17:56:18.858Z,5.24
2023-01-07T17:58:46.799Z,5.44
2023-01-07T18:01:17.610Z,5.12
2023-01-07T18:03:47.183Z,5.30
2023-01-07T18:06:19.425Z,5.12
2023-01-07T18:08:49.987Z,5.46
2023-01-07T18:11:38.767Z,5.52
2023-01-07T18:14:07.321Z,5.41
2023-01-07T18:16:35.892Z,5.36
2023-01-07T18:19:03.886Z,5.34
2023-01-07T18:21:37.180Z,5.43
2023-01-07T18:24:10.536Z,5.47
2023-01-07T18:26:42.378Z,4.60
2023-01-07T18:29:14.394Z,5.44
2023-01-07T18:31:48.891Z,5.19
2023-01-07T18:34:17.287Z,5.43
2023-01-07T18:37:05.515Z,5.23
2023-01-07T18:39:39.421Z,5.29
2023-01-07T18:42:11.243Z,5.21
2023-01-07T18:44:42.333Z,5.37
2023-01-07T18:47:17.075Z,5.37
2023-01-07T18:49:45.609Z,5.47
2023-01-07T18:52:15.254Z,5.56
2023-01-07T18:54:45.760Z,5.52
2023-01-07T18:57:14.794Z,5.68
2023-01-07T18:59:46.803Z,5.66
2023-01-07T19:02:17.121Z,5.66
2023-01-07T19:04:45.040Z,5.61
2023-01-07T19:07:14.367Z,5.63
2023-01-07T19:09:42.391Z,5.57
2023-01-07T19:12:11.373Z,5.52
2023-01-07T19:14:39.710Z,5.48
2023-01-07T19:17:08.678Z,5.36
2023-01-07T19:19:47.533Z,5.13
2023-01-07T19:22:18.101Z,4.99
2023-01-07T19:24:46.597Z,5.24
2023-01-07T19:27:14.478Z,5.17
2023-01-07T19:29:42.318Z,4.95
2023-01-07T19:32:12.837Z,4.96
2023-01-07T19:34:40.703Z,4.76
2023-01-07T19:37:09.906Z,4.75
2023-01-07T19:39:39.991Z,4.67
2023-01-07T19:42:09.912Z,4.64
2023-01-07T19:44:38.479Z,4.72
2023-01-07T19:47:06.483Z,4.67
2023-01-07T19:49:35.940Z,4.68
2023-01-07T19:52:03.797Z,4.50
2023-01-07T19:54:31.878Z,4.51
2023-01-07T19:57:01.121Z,4.40
2023-01-07T19:59:31.222Z,3.92
2023-01-07T20:01:59.256Z,4.30
2023-01-07T20:04:27.634Z,4.27
2023-01-07T20:06:55.766Z,4.34
2023-01-07T20:09:24.016Z,4.34
2023-01-07T20:11:52.082Z,4.53
2023-01-07T20:14:21.351Z,4.59
2023-01-07T20:16:50.245Z,4.54
2023-01-07T20:19:19.353Z,4.45
2023-01-07T20:21:47.700Z,4.45
2023-01-07T20:24:15.917Z,4.48
2023-01-07T20:26:46.199Z,4.46
2023-01-07T20:29:14.305Z,4.61
2023-01-07T20:31:44.396Z,4.66
2023-01-07T20:34:13.764Z,4.66
2023-01-07T20:36:41.618Z,4.80
2023-01-07T20:39:11.910Z,4.71
2023-01-07T20:41:40.852Z,4.74
2023-01-07T20:44:11.770Z,4.73
2023-01-07T20:46:40.807Z,4.60
2023-01-07T20:49:15.833Z,4.71
2023-01-07T20:51:45.271Z,4.69
2023-01-07T20:54:13.526Z,4.64
2023-01-07T20:56:44.027Z,4.58
2023-01-07T20:59:14.281Z,4.58
2023-01-07T21:01:44.140Z,4.56
2023-01-07T21:04:19.068Z,4.21
2023-01-07T21:06:46.971Z,3.92
2023-01-07T21:09:15.281Z,3.69
2023-01-07T21:11:45.604Z,3.49
2023-01-07T21:14:14.721Z,3.40
2023-01-07T21:16:42.737Z,3.24
2023-01-07T21:19:10.644Z,3.17
2023-01-07T21:21:39.927Z,2.82
2023-01-07T21:24:08.089Z,2.93
2023-01-07T21:26:35.958Z,2.91
2023-01-07T21:29:03.807Z,2.30
2023-01-07T21:31:31.798Z,2.89
2023-01-07T21:34:00.063Z,2.91
2023-01-07T21:36:29.117Z,2.98
2023-01-07T21:39:00.406Z,3.01
2023-01-07T21:41:29.649Z,2.91
2023-01-07T21:44:04.443Z,2.79
2023-01-07T21:46:32.762Z,2.83
2023-01-07T21:49:03.734Z,2.93
2023-01-07T21:51:31.732Z,1.77
2023-01-07T21:54:01.006Z,3.08
2023-01-07T21:56:32.738Z,3.11
2023-01-07T21:59:01.031Z,3.24
2023-01-07T22:01:29.803Z,3.19
2023-01-07T22:03:59.460Z,3.27
2023-01-07T22:06:31.035Z,3.12
2023-01-07T22:09:02.299Z,2.99
2023-01-07T22:11:30.401Z,3.03
2023-01-07T22:14:02.105Z,2.78
2023-01-07T22:16:31.704Z,2.74
2023-01-07T22:19:00.069Z,2.62
2023-01-07T22:21:28.188Z,2.53
2023-01-07T22:23:59.529Z,2.57
2023-01-07T22:26:28.771Z,2.57
2023-01-07T22:28:59.151Z,2.57
2023-01-07T22:31:30.426Z,2.46
2023-01-07T22:33:58.518Z,2.62
2023-01-07T22:36:33.745Z,2.56
2023-01-07T22:39:07.378Z,2.45
2023-01-07T22:41:36.888Z,2.34
2023-01-07T22:44:08.704Z,2.46
2023-01-07T22:46:38.774Z,2.48
2023-01-07T22:49:07.588Z,2.43
2023-01-07T22:51:39.575Z,2.52
2023-01-07T22:54:08.988Z,1.28
2023-01-07T22:56:38.933Z,2.45
2023-01-07T22:59:06.883Z,2.41
2023-01-07T23:01:34.874Z,2.39
2023-01-07T23:04:02.771Z,2.49
2023-01-07T23:06:30.647Z,2.50
2023-01-07T23:08:58.541Z,2.41
2023-01-07T23:11:43.899Z,2.32
2023-01-07T23:14:13.441Z,2.26
2023-01-07T23:16:41.642Z,2.19
2023-01-07T23:19:09.624Z,2.33
2023-01-07T23:21:41.141Z,1.87
2023-01-07T23:24:09.347Z,2.04
2023-01-07T23:26:37.877Z,1.98
2023-01-07T23:29:06.487Z,2.03
2023-01-07T23:31:36.628Z,2.01
2023-01-07T23:34:07.712Z,1.93
2023-01-07T23:36:37.296Z,1.97
2023-01-07T23:39:07.548Z,1.41
2023-01-07T23:41:35.421Z,1.71
2023-01-07T23:44:03.389Z,1.52
2023-01-07T23:46:31.514Z,1.62
2023-01-07T23:49:00.787Z,1.54
2023-01-07T23:51:28.992Z,1.59
2023-01-07T23:53:56.880Z,1.66
2023-01-07T23:56:24.814Z,1.70
2023-01-07T23:58:52.672Z,1.68
